createdAt,value
2023-05-07T00:02:12.754Z,63.45
2023-05-07T00:04:40.190Z,63.36
2023-05-07T00:07:07.152Z,58.89
2023-05-07T00:09:34.386Z,58.70
2023-05-07T00:12:01.538Z,61.07
2023-05-07T00:14:28.494Z,62.63
2023-05-07T00:16:55.375Z,62.84
2023-05-07T00:19:22.279Z,63.15
2023-05-07T00:21:49.544Z,62.86
2023-05-07T00:24:16.415Z,61.58
2023-05-07T00:26:43.340Z,56.45
2023-05-07T00:29:10.210Z,58.76
2023-05-07T00:31:37.175Z,61.21
2023-05-07T00:34:04.339Z,61.13
2023-05-07T00:36:31.742Z,60.45
2023-05-07T00:39:01.552Z,58.15
2023-05-07T00:41:28.455Z,59.12
2023-05-07T00:43:55.316Z,60.37
2023-05-07T00:46:22.552Z,56.88
2023-05-07T00:48:51.237Z,57.75
2023-05-07T00:51:18.967Z,59.83
2023-05-07T00:53:46.437Z,59.86
2023-05-07T00:56:13.368Z,61.05
2023-05-07T00:58:40.436Z,62.62
2023-05-07T01:01:07.492Z,62.98
2023-05-07T01:03:34.477Z,60.62
2023-05-07T01:06:03.002Z,62.74
2023-05-07T01:08:31.184Z,60.77
2023-05-07T01:10:58.632Z,61.39
2023-05-07T01:13:26.069Z,59.38
2023-05-07T01:15:53.197Z,62.46
2023-05-07T01:18:20.098Z,61.90
2023-05-07T01:20:47.071Z,62.95
2023-05-07T01:23:14.045Z,63.98
2023-05-07T01:25:40.884Z,65.31
2023-05-07T01:28:07.963Z,65.71
2023-05-07T01:30:36.216Z,64.13
2023-05-07T01:33:08.085Z,62.79
2023-05-07T01:35:46.939Z,62.09
2023-05-07T01:38:14.232Z,62.91
2023-05-07T01:40:41.146Z,62.04
2023-05-07T01:43:08.238Z,61.27
2023-05-07T01:45:35.787Z,62.58
2023-05-07T01:48:04.109Z,61.23
2023-05-07T01:50:32.160Z,62.85
2023-05-07T01:52:59.044Z,67.51
2023-05-07T01:55:26.016Z,64.95
2023-05-07T01:57:52.886Z,66.64
2023-05-07T02:00:20.325Z,65.09
2023-05-07T02:02:47.456Z,66.50
2023-05-07T02:05:14.485Z,67.86
2023-05-07T02:07:41.306Z,68.48
2023-05-07T02:10:08.819Z,75.12
2023-05-07T02:12:35.964Z,67.29
2023-05-07T02:15:02.876Z,65.49
2023-05-07T02:17:33.013Z,64.50
2023-05-07T02:20:00.931Z,64.11
2023-05-07T02:22:27.771Z,62.63
2023-05-07T02:24:54.626Z,62.98
2023-05-07T02:27:21.478Z,63.97
2023-05-07T02:29:48.357Z,62.81
2023-05-07T02:32:15.228Z,61.17
2023-05-07T02:34:42.424Z,62.38
2023-05-07T02:37:09.258Z,64.15
2023-05-07T02:39:36.136Z,60.51
2023-05-07T02:42:03.446Z,61.02
2023-05-07T02:44:32.573Z,64.67
2023-05-07T02:46:59.492Z,62.99
2023-05-07T02:49:26.430Z,62.18
2023-05-07T02:51:53.262Z,63.44
2023-05-07T02:54:20.102Z,64.94
2023-05-07T02:56:46.947Z,62.43
2023-05-07T02:59:13.780Z,58.50
2023-05-07T03:01:40.857Z,60.17
2023-05-07T03:04:07.768Z,60.13
2023-05-07T03:06:34.660Z,62.86
2023-05-07T03:09:01.518Z,62.84
2023-05-07T03:11:28.441Z,62.64
2023-05-07T03:13:55.386Z,62.05
2023-05-07T03:16:22.579Z,60.45
2023-05-07T03:18:49.500Z,62.01
2023-05-07T03:21:16.543Z,60.95
2023-05-07T03:23:43.379Z,62.20
2023-05-07T03:26:10.232Z,60.63
2023-05-07T03:28:37.708Z,62.32
2023-05-07T03:31:04.598Z,61.82
2023-05-07T03:33:34.012Z,61.03
2023-05-07T03:36:00.913Z,60.11
2023-05-07T03:38:27.765Z,60.10
2023-05-07T03:40:54.624Z,60.61
2023-05-07T03:43:21.440Z,61.79
2023-05-07T03:45:48.365Z,61.97
2023-05-07T03:48:15.228Z,64.20
2023-05-07T03:50:42.345Z,64.75
2023-05-07T03:53:09.437Z,61.35
2023-05-07T03:55:36.784Z,64.37
2023-05-07T03:58:03.631Z,60.46
2023-05-07T04:00:34.696Z,63.15
2023-05-07T04:03:01.664Z,65.12
2023-05-07T04:05:28.649Z,62.87
2023-05-07T04:07:55.658Z,60.60
2023-05-07T04:10:22.560Z,63.28
2023-05-07T04:12:49.488Z,62.96
2023-05-07T04:15:16.528Z,65.26
2023-05-07T04:17:43.455Z,65.78
2023-05-07T04:20:11.921Z,63.61
2023-05-07T04:22:38.941Z,62.74
2023-05-07T04:25:06.242Z,62.91
2023-05-07T04:27:33.610Z,62.05
2023-05-07T04:30:01.890Z,63.12
2023-05-07T04:32:30.258Z,60.29
2023-05-07T04:34:57.755Z,63.85
2023-05-07T04:37:26.992Z,63.77
2023-05-07T04:39:53.852Z,63.77
2023-05-07T04:42:20.764Z,63.17
2023-05-07T04:44:47.610Z,62.67
2023-05-07T04:47:14.496Z,61.70
2023-05-07T04:49:41.341Z,62.95
2023-05-07T04:52:08.183Z,62.83
2023-05-07T04:54:34.969Z,63.71
2023-05-07T04:57:01.829Z,62.51
2023-05-07T04:59:28.679Z,62.02
2023-05-07T05:01:55.579Z,62.55
2023-05-07T05:04:23.952Z,61.79
2023-05-07T05:06:51.070Z,59.22
2023-05-07T05:09:17.939Z,58.62
2023-05-07T05:11:45.016Z,59.26
2023-05-07T05:14:11.847Z,60.57
2023-05-07T05:16:38.811Z,59.61
2023-05-07T05:19:05.863Z,58.98
2023-05-07T05:21:33.061Z,61.49
2023-05-07T05:24:00.060Z,61.88
2023-05-07T05:26:26.955Z,63.21
2023-05-07T05:28:53.792Z,63.46
2023-05-07T05:31:20.693Z,64.23
2023-05-07T05:33:47.567Z,63.26
2023-05-07T05:36:14.554Z,60.06
2023-05-07T05:38:41.634Z,63.51
2023-05-07T05:41:08.502Z,61.69
2023-05-07T05:43:35.602Z,60.26
2023-05-07T05:46:02.501Z,60.42
2023-05-07T05:48:30.715Z,58.92
2023-05-07T05:50:57.555Z,60.39
2023-05-07T05:53:24.398Z,61.45
2023-05-07T05:55:51.393Z,60.38
2023-05-07T05:58:18.234Z,58.67
2023-05-07T06:00:46.064Z,58.96
2023-05-07T06:03:14.405Z,59.88
2023-05-07T06:05:41.451Z,60.51
2023-05-07T06:08:08.757Z,60.39
2023-05-07T06:10:39.878Z,60.76
2023-05-07T06:13:06.795Z,60.10
2023-05-07T06:15:33.686Z,58.50
2023-05-07T06:18:00.702Z,60.11
2023-05-07T06:20:27.569Z,61.39
2023-05-07T06:22:54.463Z,62.12
2023-05-07T06:25:21.314Z,61.62
2023-05-07T06:27:48.193Z,60.71
2023-05-07T06:30:15.318Z,58.42
2023-05-07T06:32:42.398Z,55.78
2023-05-07T06:35:09.717Z,56.08
2023-05-07T06:37:39.389Z,54.46
2023-05-07T06:40:07.575Z,51.37
2023-05-07T06:42:34.462Z,48.56
2023-05-07T06:45:01.327Z,50.61
2023-05-07T06:47:28.273Z,48.03
2023-05-07T06:49:55.203Z,47.54
2023-05-07T06:52:22.140Z,46.90
2023-05-07T06:54:49.041Z,47.05
2023-05-07T06:57:15.891Z,47.35
2023-05-07T06:59:42.746Z,46.28
2023-05-07T07:02:09.757Z,45.52
2023-05-07T07:04:36.758Z,43.21
2023-05-07T07:07:03.664Z,41.71
2023-05-07T07:09:30.568Z,40.19
2023-05-07T07:11:57.364Z,38.91
2023-05-07T07:14:24.203Z,38.47
2023-05-07T07:16:51.134Z,40.19
2023-05-07T07:19:18.215Z,41.35
2023-05-07T07:21:46.037Z,48.44
2023-05-07T07:24:14.699Z,49.16
2023-05-07T07:26:41.548Z,46.17
2023-05-07T07:29:08.366Z,47.27
2023-05-07T07:31:35.278Z,45.17
2023-05-07T07:34:02.183Z,50.34
2023-05-07T07:36:42.530Z,49.48
2023-05-07T07:39:12.749Z,54.85
2023-05-07T07:41:39.606Z,52.88
2023-05-07T07:44:08.691Z,51.71
2023-05-07T07:46:35.999Z,51.08
2023-05-07T07:49:02.985Z,50.21
2023-05-07T07:51:29.810Z,48.42
2023-05-07T07:53:58.774Z,46.57
2023-05-07T07:56:25.962Z,47.09
2023-05-07T07:58:52.768Z,48.46
2023-05-07T08:01:19.577Z,49.73
2023-05-07T08:03:46.491Z,50.17
2023-05-07T08:06:15.264Z,50.42
2023-05-07T08:08:42.266Z,49.36
2023-05-07T08:11:09.133Z,50.54
2023-05-07T08:13:36.153Z,50.60
2023-05-07T08:16:03.130Z,48.51
2023-05-07T08:18:30.171Z,48.79
2023-05-07T08:20:57.170Z,50.51
2023-05-07T08:23:24.054Z,46.12
2023-05-07T08:25:51.077Z,47.84
2023-05-07T08:28:17.960Z,44.85
2023-05-07T08:30:44.878Z,45.35
2023-05-07T08:33:11.952Z,48.98
2023-05-07T08:35:38.836Z,48.65
2023-05-07T08:38:05.704Z,46.15
2023-05-07T08:40:39.497Z,46.81
2023-05-07T08:43:08.010Z,46.86
2023-05-07T08:45:36.036Z,48.47
2023-05-07T08:48:04.722Z,46.03
2023-05-07T08:50:31.642Z,42.76
2023-05-07T08:52:58.657Z,39.12
2023-05-07T08:55:25.903Z,37.01
2023-05-07T08:57:54.178Z,38.20
2023-05-07T09:00:21.328Z,41.34
2023-05-07T09:02:48.269Z,39.98
2023-05-07T09:05:15.479Z,38.45
2023-05-07T09:07:42.377Z,37.63
2023-05-07T09:10:09.785Z,40.15
2023-05-07T09:12:37.447Z,41.38
2023-05-07T09:15:04.975Z,40.50
2023-05-07T09:17:31.910Z,39.51
2023-05-07T09:20:04.876Z,40.81
2023-05-07T09:22:37.075Z,38.47
2023-05-07T09:25:04.180Z,39.17
2023-05-07T09:27:31.949Z,37.88
2023-05-07T09:29:58.829Z,38.52
2023-05-07T09:32:26.510Z,36.13
2023-05-07T09:34:53.551Z,35.50
2023-05-07T09:37:20.811Z,35.65
2023-05-07T09:39:50.078Z,37.18
2023-05-07T09:42:17.061Z,37.23
2023-05-07T09:44:46.902Z,35.92
2023-05-07T09:47:19.758Z,36.85
2023-05-07T09:49:51.235Z,38.68
2023-05-07T09:52:18.363Z,43.78
2023-05-07T09:54:46.907Z,41.18
2023-05-07T09:57:14.080Z,42.62
2023-05-07T09:59:43.763Z,40.67
2023-05-07T10:02:11.584Z,36.74
2023-05-07T10:04:38.517Z,38.97
2023-05-07T10:07:06.100Z,42.78
2023-05-07T10:09:33.405Z,42.54
2023-05-07T10:12:00.705Z,45.72
2023-05-07T10:14:29.416Z,45.91
2023-05-07T10:16:56.421Z,44.57
2023-05-07T10:19:23.491Z,45.90
2023-05-07T10:21:57.888Z,45.55
2023-05-07T10:24:32.721Z,41.97
2023-05-07T10:27:00.541Z,40.77
2023-05-07T10:29:52.333Z,40.33
2023-05-07T10:32:41.509Z,39.52
2023-05-07T10:35:13.539Z,39.92
2023-05-07T10:37:41.165Z,40.61
2023-05-07T10:40:08.723Z,45.64
2023-05-07T10:42:35.662Z,48.25
2023-05-07T10:45:16.749Z,44.90
2023-05-07T10:48:29.441Z,45.80
2023-05-07T10:51:19.950Z,50.23
2023-05-07T10:53:46.825Z,50.20
2023-05-07T10:56:19.818Z,47.97
2023-05-07T10:58:46.774Z,48.55
2023-05-07T11:01:15.607Z,51.01
2023-05-07T11:04:16.815Z,49.30
2023-05-07T11:06:43.638Z,48.70
2023-05-07T11:09:10.527Z,49.56
2023-05-07T11:11:48.534Z,51.54
2023-05-07T11:14:17.484Z,49.66
2023-05-07T11:16:44.801Z,45.44
2023-05-07T11:19:11.777Z,45.82
2023-05-07T11:21:39.411Z,45.87
2023-05-07T11:24:07.965Z,47.76
2023-05-07T11:26:46.713Z,47.17
2023-05-07T11:29:22.508Z,47.40
2023-05-07T11:31:53.682Z,49.56
2023-05-07T11:34:25.556Z,50.05
2023-05-07T11:36:53.054Z,51.27
2023-05-07T11:39:27.861Z,50.12
2023-05-07T11:41:54.691Z,47.93
2023-05-07T11:44:21.573Z,53.76
2023-05-07T11:46:48.466Z,54.65
2023-05-07T11:49:15.377Z,53.42
2023-05-07T11:51:43.087Z,49.61
2023-05-07T11:54:12.381Z,50.53
2023-05-07T11:56:40.144Z,53.71
2023-05-07T11:59:07.393Z,55.94
2023-05-07T12:01:36.642Z,57.29
2023-05-07T12:04:04.753Z,58.13
2023-05-07T12:06:32.143Z,55.81
2023-05-07T12:08:58.964Z,55.24
2023-05-07T12:11:27.133Z,53.66
2023-05-07T12:13:59.036Z,54.34
2023-05-07T12:16:26.524Z,52.81
2023-05-07T12:18:56.287Z,50.76
2023-05-07T12:21:23.430Z,52.71
2023-05-07T12:23:50.314Z,54.13
2023-05-07T12:26:17.222Z,53.40
2023-05-07T12:28:44.090Z,53.91
2023-05-07T12:31:11.657Z,56.30
2023-05-07T12:33:38.649Z,58.25
2023-05-07T12:36:08.549Z,53.74
2023-05-07T12:38:39.914Z,53.79
2023-05-07T12:41:08.436Z,55.18
2023-05-07T12:43:35.476Z,55.84
2023-05-07T12:46:05.462Z,58.61
2023-05-07T12:48:33.258Z,56.13
2023-05-07T12:51:03.616Z,54.77
2023-05-07T12:53:32.304Z,55.65
2023-05-07T12:56:01.060Z,56.04
2023-05-07T12:58:31.637Z,53.19
2023-05-07T13:01:01.023Z,53.21
2023-05-07T13:03:36.006Z,50.06
2023-05-07T13:06:07.382Z,50.35
2023-05-07T13:08:49.514Z,50.17
2023-05-07T13:11:16.687Z,50.06
2023-05-07T13:13:43.583Z,47.54
2023-05-07T13:16:12.284Z,47.91
2023-05-07T13:18:41.044Z,50.20
2023-05-07T13:21:08.186Z,44.63
2023-05-07T13:23:35.186Z,45.83
2023-05-07T13:26:08.486Z,47.23
2023-05-07T13:28:38.481Z,46.75
2023-05-07T13:31:05.358Z,47.61
2023-05-07T13:33:32.268Z,44.43
2023-05-07T13:35:59.196Z,42.92
2023-05-07T13:38:26.122Z,44.19
2023-05-07T13:40:52.990Z,41.39
2023-05-07T13:43:20.244Z,42.37
2023-05-07T13:45:47.158Z,45.66
2023-05-07T13:48:14.251Z,47.76
2023-05-07T13:50:41.152Z,49.74
2023-05-07T13:53:09.195Z,49.96
2023-05-07T13:55:36.060Z,50.04
2023-05-07T13:58:06.917Z,48.40
2023-05-07T14:00:34.255Z,48.99
2023-05-07T14:03:01.211Z,48.26
2023-05-07T14:05:29.190Z,48.06
2023-05-07T14:07:58.366Z,50.04
2023-05-07T14:10:25.661Z,49.61
2023-05-07T14:12:53.903Z,52.08
2023-05-07T14:15:21.000Z,48.79
2023-05-07T14:17:48.146Z,48.11
2023-05-07T14:20:15.420Z,50.81
2023-05-07T14:22:42.497Z,50.78
2023-05-07T14:25:10.938Z,53.69
2023-05-07T14:27:38.056Z,53.23
2023-05-07T14:30:05.218Z,52.12
2023-05-07T14:32:32.119Z,53.08
2023-05-07T14:34:59.016Z,54.72
2023-05-07T14:37:25.888Z,54.32
2023-05-07T14:39:52.892Z,52.65
2023-05-07T14:42:19.732Z,51.57
2023-05-07T14:44:47.686Z,52.84
2023-05-07T14:47:14.723Z,54.67
2023-05-07T14:49:43.054Z,51.76
2023-05-07T14:52:11.286Z,52.21
2023-05-07T14:54:39.278Z,52.21
2023-05-07T14:57:07.388Z,53.52
2023-05-07T14:59:34.259Z,53.36
2023-05-07T15:02:02.469Z,53.38
2023-05-07T15:04:30.822Z,53.80
2023-05-07T15:06:57.815Z,51.92
2023-05-07T15:09:24.686Z,51.92
2023-05-07T15:11:51.541Z,52.61
2023-05-07T15:14:18.528Z,55.88
2023-05-07T15:16:46.757Z,54.93
2023-05-07T15:19:16.037Z,55.67
2023-05-07T15:21:42.913Z,57.61
2023-05-07T15:24:10.332Z,56.98
2023-05-07T15:26:37.421Z,56.49
2023-05-07T15:29:09.218Z,58.20
2023-05-07T15:31:36.188Z,59.32
2023-05-07T15:34:03.013Z,58.52
2023-05-07T15:36:29.948Z,58.27
2023-05-07T15:38:56.877Z,61.15
2023-05-07T15:41:23.749Z,56.69
2023-05-07T15:43:52.093Z,55.99
2023-05-07T15:46:20.527Z,54.21
2023-05-07T15:48:47.755Z,52.86
2023-05-07T15:51:14.660Z,52.47
2023-05-07T15:53:41.528Z,51.67
2023-05-07T15:56:08.582Z,54.94
2023-05-07T15:58:36.479Z,56.24
2023-05-07T16:01:04.141Z,55.74
2023-05-07T16:03:31.567Z,54.36
2023-05-07T16:06:00.917Z,54.90
2023-05-07T16:08:27.891Z,54.22
2023-05-07T16:10:55.133Z,53.07
2023-05-07T16:13:22.107Z,51.04
2023-05-07T16:15:49.229Z,49.85
2023-05-07T16:18:16.440Z,51.28
2023-05-07T16:20:44.004Z,51.15
2023-05-07T16:23:10.886Z,52.98
2023-05-07T16:25:37.745Z,54.33
2023-05-07T16:28:04.692Z,55.14
2023-05-07T16:30:31.615Z,55.17
2023-05-07T16:32:58.503Z,56.19
2023-05-07T16:35:25.552Z,58.86
2023-05-07T16:37:53.173Z,58.68
2023-05-07T16:40:19.993Z,61.13
2023-05-07T16:42:46.873Z,63.37
2023-05-07T16:45:13.893Z,61.88
2023-05-07T16:47:40.985Z,62.38
2023-05-07T16:50:08.237Z,62.70
2023-05-07T16:52:35.106Z,65.54
2023-05-07T16:55:02.062Z,64.33
2023-05-07T16:57:31.647Z,66.72
2023-05-07T17:00:00.133Z,66.55
2023-05-07T17:02:27.626Z,67.46
2023-05-07T17:04:54.849Z,67.96
2023-05-07T17:07:21.740Z,67.53
2023-05-07T17:09:48.642Z,67.15
2023-05-07T17:12:15.614Z,67.36
2023-05-07T17:14:42.507Z,66.72
2023-05-07T17:17:09.376Z,66.68
2023-05-07T17:19:39.956Z,65.98
2023-05-07T17:22:07.113Z,68.26
2023-05-07T17:24:33.970Z,69.02
2023-05-07T17:27:00.888Z,66.61
2023-05-07T17:29:27.786Z,67.06
2023-05-07T17:31:54.648Z,65.89
2023-05-07T17:34:21.505Z,64.15
2023-05-07T17:36:48.361Z,64.67
2023-05-07T17:39:15.175Z,62.40
2023-05-07T17:41:42.030Z,63.54
2023-05-07T17:44:08.882Z,62.74
2023-05-07T17:46:35.835Z,62.65
2023-05-07T17:49:02.691Z,64.10
2023-05-07T17:51:36.040Z,65.22
2023-05-07T17:54:06.110Z,64.67
2023-05-07T17:56:32.949Z,66.47
2023-05-07T17:58:59.846Z,67.13
2023-05-07T18:01:26.962Z,66.53
2023-05-07T18:03:54.034Z,67.28
2023-05-07T18:06:23.312Z,67.76
2023-05-07T18:08:50.263Z,67.10
2023-05-07T18:11:17.116Z,65.57
2023-05-07T18:13:43.971Z,68.20
2023-05-07T18:16:10.888Z,67.33
2023-05-07T18:18:37.853Z,64.78
2023-05-07T18:21:04.729Z,66.48
2023-05-07T18:23:33.800Z,63.88
2023-05-07T18:26:00.744Z,65.04
2023-05-07T18:28:27.636Z,66.02
2023-05-07T18:30:54.455Z,66.07
2023-05-07T18:33:21.303Z,65.68
2023-05-07T18:35:48.125Z,66.33
2023-05-07T18:38:14.960Z,66.29
2023-05-07T18:40:44.198Z,63.17
2023-05-07T18:43:11.410Z,62.45
2023-05-07T18:45:38.534Z,63.28
2023-05-07T18:48:06.987Z,64.14
2023-05-07T18:50:34.257Z,64.50
2023-05-07T18:53:01.772Z,63.09
2023-05-07T18:55:28.808Z,60.51
2023-05-07T18:57:55.599Z,61.22
2023-05-07T19:00:22.598Z,62.38
2023-05-07T19:02:49.474Z,61.51
2023-05-07T19:05:18.537Z,63.57
2023-05-07T19:07:47.261Z,60.70
2023-05-07T19:10:14.878Z,61.66
2023-05-07T19:12:41.798Z,60.70
2023-05-07T19:15:09.651Z,64.46
2023-05-07T19:17:36.570Z,61.61
2023-05-07T19:20:04.628Z,58.35
2023-05-07T19:22:31.535Z,57.75
2023-05-07T19:24:58.413Z,58.15
2023-05-07T19:27:25.442Z,59.91
2023-05-07T19:29:52.349Z,59.00
2023-05-07T19:32:21.495Z,60.81
2023-05-07T19:34:48.535Z,61.36
2023-05-07T19:37:15.632Z,62.50
2023-05-07T19:39:42.606Z,62.45
2023-05-07T19:42:09.491Z,61.10
2023-05-07T19:44:36.388Z,60.62
2023-05-07T19:47:03.838Z,60.26
2023-05-07T19:49:30.687Z,59.71
2023-05-07T19:51:57.529Z,62.11
2023-05-07T19:54:24.455Z,62.91
2023-05-07T19:56:51.306Z,63.99
2023-05-07T19:59:18.185Z,61.21
2023-05-07T20:01:45.058Z,63.88
2023-05-07T20:04:11.919Z,63.61
2023-05-07T20:06:38.760Z,64.58
2023-05-07T20:09:06.482Z,62.56
2023-05-07T20:11:33.432Z,61.95
2023-05-07T20:14:00.299Z,60.72
2023-05-07T20:16:27.169Z,61.75
2023-05-07T20:18:54.000Z,58.49
2023-05-07T20:21:20.910Z,60.39
2023-05-07T20:23:47.824Z,61.59
2023-05-07T20:26:14.675Z,59.32
2023-05-07T20:28:41.554Z,62.11
2023-05-07T20:31:08.427Z,61.78
2023-05-07T20:33:35.773Z,62.25
2023-05-07T20:36:02.622Z,62.00
2023-05-07T20:38:33.921Z,59.50
2023-05-07T20:41:11.926Z,59.95
2023-05-07T20:43:38.931Z,60.49
2023-05-07T20:46:07.957Z,60.12
2023-05-07T20:48:35.085Z,61.28
2023-05-07T20:51:02.768Z,59.01
2023-05-07T20:53:30.589Z,59.07
2023-05-07T20:55:57.795Z,58.08
2023-05-07T20:58:26.003Z,59.87
2023-05-07T21:00:53.556Z,59.25
2023-05-07T21:03:20.831Z,61.05
2023-05-07T21:05:54.740Z,62.14
2023-05-07T21:08:21.623Z,62.38
2023-05-07T21:10:49.406Z,63.35
2023-05-07T21:13:16.423Z,63.33
2023-05-07T21:15:43.447Z,64.15
2023-05-07T21:18:13.626Z,63.41
2023-05-07T21:20:40.832Z,62.53
2023-05-07T21:23:07.771Z,64.47
2023-05-07T21:25:37.908Z,63.59
2023-05-07T21:28:09.038Z,60.66
2023-05-07T21:30:37.049Z,59.26
2023-05-07T21:33:05.570Z,59.20
2023-05-07T21:35:35.163Z,59.63
2023-05-07T21:38:02.791Z,60.15
2023-05-07T21:40:29.756Z,57.54
2023-05-07T21:42:56.587Z,61.04
2023-05-07T21:45:23.485Z,59.86
2023-05-07T21:47:50.590Z,60.55
2023-05-07T21:50:17.601Z,59.79
2023-05-07T21:52:44.455Z,60.47
2023-05-07T21:55:11.700Z,60.06
2023-05-07T21:57:43.513Z,60.67
2023-05-07T22:00:13.303Z,60.80
2023-05-07T22:02:40.515Z,62.35
2023-05-07T22:05:07.741Z,64.34
2023-05-07T22:07:34.594Z,62.58
2023-05-07T22:10:01.678Z,65.32
2023-05-07T22:12:28.549Z,65.56
2023-05-07T22:14:55.433Z,65.32
2023-05-07T22:17:24.582Z,64.90
2023-05-07T22:19:51.760Z,63.55
2023-05-07T22:22:19.367Z,63.95
2023-05-07T22:24:46.625Z,63.95
2023-05-07T22:27:13.464Z,61.79
2023-05-07T22:29:40.903Z,61.98
2023-05-07T22:32:08.842Z,64.57
2023-05-07T22:34:37.444Z,66.55
2023-05-07T22:37:04.312Z,70.56
2023-05-07T22:39:34.542Z,71.86
2023-05-07T22:42:02.410Z,73.97
2023-05-07T22:44:29.434Z,72.56
2023-05-07T22:46:56.340Z,73.40
2023-05-07T22:49:23.167Z,72.80
2023-05-07T22:51:49.831Z,74.09
2023-05-07T22:54:16.740Z,77.55
2023-05-07T22:56:43.718Z,75.45
2023-05-07T22:59:10.581Z,77.21
2023-05-07T23:01:37.472Z,73.58
2023-05-07T23:04:04.337Z,74.72
2023-05-07T23:06:31.359Z,73.18
2023-05-07T23:08:59.048Z,73.86
2023-05-07T23:11:26.578Z,72.95
2023-05-07T23:13:53.507Z,73.83
2023-05-07T23:16:20.407Z,75.03
2023-05-07T23:18:48.013Z,76.10
2023-05-07T23:21:14.882Z,73.84
2023-05-07T23:23:41.747Z,74.39
2023-05-07T23:26:08.627Z,74.27
2023-05-07T23:28:35.527Z,71.61
2023-05-07T23:31:02.388Z,71.51
2023-05-07T23:33:29.266Z,73.80
2023-05-07T23:36:03.891Z,73.97
2023-05-07T23:38:31.117Z,73.82
2023-05-07T23:40:57.968Z,72.96
2023-05-07T23:43:24.886Z,73.50
2023-05-07T23:45:51.795Z,72.03
2023-05-07T23:48:18.870Z,71.95
2023-05-07T23:50:45.746Z,72.37
2023-05-07T23:53:12.632Z,76.22
2023-05-07T23:55:39.470Z,78.74
2023-05-07T23:58:06.348Z,74.83
